sensor_id;sensor_type;location;lat;lon;timestamp;pressure;altitude;pressure_sealevel;temperature;humidity
17362;BME280;8798;51.938;4.348;2023-09-07T00:01:06;100910.41;;;22.62;60.33
17362;BME280;8798;51.938;4.348;2023-09-07T00:03:34;100907.31;;;22.58;60.45
17362;BME280;8798;51.938;4.348;2023-09-07T00:06:09;100919.31;;;22.57;60.36
17362;BME280;8798;51.938;4.348;2023-09-07T00:08:38;100914.50;;;22.52;60.14
17362;BME280;8798;51.938;4.348;2023-09-07T00:11:06;100919.41;;;22.50;60.14
17362;BME280;8798;51.938;4.348;2023-09-07T00:13:36;100927.84;;;22.49;60.61
17362;BME280;8798;51.938;4.348;2023-09-07T00:16:05;100928.91;;;22.48;60.21
17362;BME280;8798;51.938;4.348;2023-09-07T00:18:34;100944.72;;;22.46;60.31
17362;BME280;8798;51.938;4.348;2023-09-07T00:21:02;100961.38;;;22.44;60.56
17362;BME280;8798;51.938;4.348;2023-09-07T00:23:30;100965.19;;;22.43;60.59
17362;BME280;8798;51.938;4.348;2023-09-07T00:25:59;100979.09;;;22.42;61.06
17362;BME280;8798;51.938;4.348;2023-09-07T00:28:27;100976.81;;;22.39;60.19
17362;BME280;8798;51.938;4.348;2023-09-07T00:30:56;100974.75;;;22.34;60.66
17362;BME280;8798;51.938;4.348;2023-09-07T00:33:24;100961.75;;;22.29;60.74
17362;BME280;8798;51.938;4.348;2023-09-07T00:35:52;100955.03;;;22.25;61.01
17362;BME280;8798;51.938;4.348;2023-09-07T00:38:20;100961.81;;;22.23;61.35
17362;BME280;8798;51.938;4.348;2023-09-07T00:40:48;100965.00;;;22.20;61.09
17362;BME280;8798;51.938;4.348;2023-09-07T00:43:17;100972.56;;;22.18;61.23
17362;BME280;8798;51.938;4.348;2023-09-07T00:45:48;100966.09;;;22.12;61.54
17362;BME280;8798;51.938;4.348;2023-09-07T00:48:16;100959.41;;;22.08;61.24
17362;BME280;8798;51.938;4.348;2023-09-07T00:50:44;100961.75;;;22.04;61.35
17362;BME280;8798;51.938;4.348;2023-09-07T00:53:13;100954.84;;;22.02;61.72
17362;BME280;8798;51.938;4.348;2023-09-07T00:55:42;100972.31;;;22.01;61.71
17362;BME280;8798;51.938;4.348;2023-09-07T00:58:10;100970.84;;;21.98;61.93
17362;BME280;8798;51.938;4.348;2023-09-07T01:00:40;100977.03;;;21.94;61.53
17362;BME280;8798;51.938;4.348;2023-09-07T01:03:09;100960.44;;;21.88;62.09
17362;BME280;8798;51.938;4.348;2023-09-07T01:05:43;100956.25;;;21.86;61.87
17362;BME280;8798;51.938;4.348;2023-09-07T01:08:19;100965.72;;;21.83;62.19
17362;BME280;8798;51.938;4.348;2023-09-07T01:10:51;100970.81;;;21.80;62.16
17362;BME280;8798;51.938;4.348;2023-09-07T01:13:20;100973.16;;;21.76;62.34
17362;BME280;8798;51.938;4.348;2023-09-07T01:15:50;100959.31;;;21.71;62.49
17362;BME280;8798;51.938;4.348;2023-09-07T01:18:18;100965.47;;;21.66;62.48
17362;BME280;8798;51.938;4.348;2023-09-07T01:20:51;100954.34;;;21.61;62.46
17362;BME280;8798;51.938;4.348;2023-09-07T01:23:21;100961.09;;;21.59;62.38
17362;BME280;8798;51.938;4.348;2023-09-07T01:25:51;100962.38;;;21.56;62.37
17362;BME280;8798;51.938;4.348;2023-09-07T01:28:20;100956.50;;;21.53;62.58
17362;BME280;8798;51.938;4.348;2023-09-07T01:30:48;100940.13;;;21.46;62.92
17362;BME280;8798;51.938;4.348;2023-09-07T01:33:16;100935.56;;;21.40;62.66
17362;BME280;8798;51.938;4.348;2023-09-07T01:35:44;100928.00;;;21.35;62.61
17362;BME280;8798;51.938;4.348;2023-09-07T01:38:13;100923.44;;;21.29;63.05
17362;BME280;8798;51.938;4.348;2023-09-07T01:40:42;100917.56;;;21.25;63.30
17362;BME280;8798;51.938;4.348;2023-09-07T01:43:10;100933.13;;;21.25;63.14
17362;BME280;8798;51.938;4.348;2023-09-07T01:45:38;100921.78;;;21.21;63.11
17362;BME280;8798;51.938;4.348;2023-09-07T01:48:08;100936.97;;;21.17;63.37
17362;BME280;8798;51.938;4.348;2023-09-07T01:50:36;100931.06;;;21.14;63.26
17362;BME280;8798;51.938;4.348;2023-09-07T01:53:04;100928.78;;;21.11;63.34
17362;BME280;8798;51.938;4.348;2023-09-07T01:55:33;100943.53;;;21.10;63.62
17362;BME280;8798;51.938;4.348;2023-09-07T01:58:03;100934.06;;;21.05;63.85
17362;BME280;8798;51.938;4.348;2023-09-07T02:00:36;100949.63;;;21.05;63.79
17362;BME280;8798;51.938;4.348;2023-09-07T02:03:04;100957.00;;;21.04;63.81
17362;BME280;8798;51.938;4.348;2023-09-07T02:05:33;100953.84;;;21.01;64.09
17362;BME280;8798;51.938;4.348;2023-09-07T02:08:01;100963.31;;;20.98;63.90
17362;BME280;8798;51.938;4.348;2023-09-07T02:10:30;100980.53;;;20.99;64.22
17362;BME280;8798;51.938;4.348;2023-09-07T02:12:58;100989.81;;;20.98;64.43
17362;BME280;8798;51.938;4.348;2023-09-07T02:15:28;101000.94;;;20.96;64.07
17362;BME280;8798;51.938;4.348;2023-09-07T02:17:56;101007.25;;;20.97;64.26
17362;BME280;8798;51.938;4.348;2023-09-07T02:20:24;101005.78;;;20.94;64.29
17362;BME280;8798;51.938;4.348;2023-09-07T02:22:52;101016.94;;;20.93;64.29
17362;BME280;8798;51.938;4.348;2023-09-07T02:25:20;101019.88;;;20.91;64.51
17362;BME280;8798;51.938;4.348;2023-09-07T02:27:48;101028.06;;;20.91;64.60
17362;BME280;8798;51.938;4.348;2023-09-07T02:30:16;101028.50;;;20.88;64.46
17362;BME280;8798;51.938;4.348;2023-09-07T02:32:46;101027.03;;;20.86;64.63
17362;BME280;8798;51.938;4.348;2023-09-07T02:35:14;101028.31;;;20.83;64.51
17362;BME280;8798;51.938;4.348;2023-09-07T02:37:42;101035.03;;;20.80;64.35
17362;BME280;8798;51.938;4.348;2023-09-07T02:40:11;101034.41;;;20.78;64.83
17362;BME280;8798;51.938;4.348;2023-09-07T02:42:39;101043.03;;;20.75;64.81
17362;BME280;8798;51.938;4.348;2023-09-07T02:45:09;101043.47;;;20.72;64.93
17362;BME280;8798;51.938;4.348;2023-09-07T02:47:38;101035.69;;;20.69;64.88
17362;BME280;8798;51.938;4.348;2023-09-07T02:50:08;101040.75;;;20.66;65.17
17362;BME280;8798;51.938;4.348;2023-09-07T02:52:36;101036.34;;;20.65;64.96
17362;BME280;8798;51.938;4.348;2023-09-07T02:55:05;101031.31;;;20.61;64.89
17362;BME280;8798;51.938;4.348;2023-09-07T02:57:35;101034.66;;;20.57;65.12
17362;BME280;8798;51.938;4.348;2023-09-07T03:00:03;101028.78;;;20.53;65.31
17362;BME280;8798;51.938;4.348;2023-09-07T03:02:36;101025.84;;;20.48;65.07
17362;BME280;8798;51.938;4.348;2023-09-07T03:05:05;101022.69;;;20.45;64.97
17362;BME280;8798;51.938;4.348;2023-09-07T03:07:34;101015.78;;;20.42;65.66
17362;BME280;8798;51.938;4.348;2023-09-07T03:10:03;101021.66;;;20.39;65.29
17362;BME280;8798;51.938;4.348;2023-09-07T03:12:31;101023.75;;;20.37;65.22
17362;BME280;8798;51.938;4.348;2023-09-07T03:14:59;101025.03;;;20.34;65.86
17362;BME280;8798;51.938;4.348;2023-09-07T03:17:30;101028.19;;;20.31;65.29
17362;BME280;8798;51.938;4.348;2023-09-07T03:19:58;101024.19;;;20.27;65.29
17362;BME280;8798;51.938;4.348;2023-09-07T03:22:26;101031.97;;;20.24;65.63
17362;BME280;8798;51.938;4.348;2023-09-07T03:24:57;101026.72;;;20.22;65.75
17362;BME280;8798;51.938;4.348;2023-09-07T03:27:25;101026.31;;;20.18;65.86
17362;BME280;8798;51.938;4.348;2023-09-07T03:29:53;101031.13;;;20.16;65.80
17362;BME280;8798;51.938;4.348;2023-09-07T03:32:21;101041.00;;;20.17;66.09
17362;BME280;8798;51.938;4.348;2023-09-07T03:34:49;101060.09;;;20.17;65.94
17362;BME280;8798;51.938;4.348;2023-09-07T03:37:17;101072.06;;;20.16;66.12
17362;BME280;8798;51.938;4.348;2023-09-07T03:39:45;101062.59;;;20.12;66.29
17362;BME280;8798;51.938;4.348;2023-09-07T03:42:14;101063.88;;;20.10;65.88
17362;BME280;8798;51.938;4.348;2023-09-07T03:44:42;101069.53;;;20.08;66.13
17362;BME280;8798;51.938;4.348;2023-09-07T03:47:13;101085.03;;;20.08;66.54
17362;BME280;8798;51.938;4.348;2023-09-07T03:49:42;101085.28;;;20.06;66.46
17362;BME280;8798;51.938;4.348;2023-09-07T03:52:10;101086.53;;;20.04;66.47
17362;BME280;8798;51.938;4.348;2023-09-07T03:54:38;101096.63;;;20.03;66.58
17362;BME280;8798;51.938;4.348;2023-09-07T03:57:06;101105.81;;;20.02;66.83
17362;BME280;8798;51.938;4.348;2023-09-07T03:59:35;101117.56;;;20.03;66.70
17362;BME280;8798;51.938;4.348;2023-09-07T04:02:03;101111.69;;;19.99;66.78
17362;BME280;8798;51.938;4.348;2023-09-07T04:04:31;101117.56;;;19.96;66.82
17362;BME280;8798;51.938;4.348;2023-09-07T04:07:00;101119.47;;;19.95;67.02
17362;BME280;8798;51.938;4.348;2023-09-07T04:09:28;101127.84;;;19.94;67.18
17362;BME280;8798;51.938;4.348;2023-09-07T04:11:56;101143.16;;;19.95;67.18
17362;BME280;8798;51.938;4.348;2023-09-07T04:14:24;101152.41;;;19.94;67.17
17362;BME280;8798;51.938;4.348;2023-09-07T04:16:53;101167.69;;;19.95;67.15
17362;BME280;8798;51.938;4.348;2023-09-07T04:19:21;101179.47;;;19.95;67.23
17362;BME280;8798;51.938;4.348;2023-09-07T04:21:49;101184.06;;;19.95;67.29
17362;BME280;8798;51.938;4.348;2023-09-07T04:24:17;101180.69;;;19.93;67.48
17362;BME280;8798;51.938;4.348;2023-09-07T04:26:47;101189.94;;;19.92;67.56
17362;BME280;8798;51.938;4.348;2023-09-07T04:29:15;101200.19;;;19.90;67.81
17362;BME280;8798;51.938;4.348;2023-09-07T04:31:43;101195.81;;;19.89;67.52
17362;BME280;8798;51.938;4.348;2023-09-07T04:34:12;101197.69;;;19.88;67.63
17362;BME280;8798;51.938;4.348;2023-09-07T04:36:40;101211.53;;;19.87;67.73
17362;BME280;8798;51.938;4.348;2023-09-07T04:39:08;101210.88;;;19.85;67.76
17362;BME280;8798;51.938;4.348;2023-09-07T04:41:36;101211.28;;;19.82;67.71
17362;BME280;8798;51.938;4.348;2023-09-07T04:44:04;101207.94;;;19.80;67.78
17362;BME280;8798;51.938;4.348;2023-09-07T04:46:32;101204.56;;;19.77;67.83
17362;BME280;8798;51.938;4.348;2023-09-07T04:49:00;101221.97;;;19.76;67.69
17362;BME280;8798;51.938;4.348;2023-09-07T04:51:30;101227.63;;;19.75;67.96
17362;BME280;8798;51.938;4.348;2023-09-07T04:54:01;101227.84;;;19.73;67.80
17362;BME280;8798;51.938;4.348;2023-09-07T04:56:29;101235.16;;;19.73;68.15
17362;BME280;8798;51.938;4.348;2023-09-07T04:58:57;101235.38;;;19.71;68.04
17362;BME280;8798;51.938;4.348;2023-09-07T05:01:25;101230.34;;;19.68;67.93
17362;BME280;8798;51.938;4.348;2023-09-07T05:03:54;101234.28;;;19.66;68.24
17362;BME280;8798;51.938;4.348;2023-09-07T05:06:22;101237.00;;;19.66;68.35
17362;BME280;8798;51.938;4.348;2023-09-07T05:08:51;101252.31;;;19.67;68.08
17362;BME280;8798;51.938;4.348;2023-09-07T05:11:19;101265.94;;;19.67;68.37
17362;BME280;8798;51.938;4.348;2023-09-07T05:13:47;101274.97;;;19.67;68.54
17362;BME280;8798;51.938;4.348;2023-09-07T05:16:16;101303.53;;;19.71;68.17
17362;BME280;8798;51.938;4.348;2023-09-07T05:18:44;101302.88;;;19.69;68.24
17362;BME280;8798;51.938;4.348;2023-09-07T05:21:12;101299.31;;;19.69;68.49
17362;BME280;8798;51.938;4.348;2023-09-07T05:23:41;101312.28;;;19.67;68.52
17362;BME280;8798;51.938;4.348;2023-09-07T05:26:11;101304.50;;;19.64;68.60
17362;BME280;8798;51.938;4.348;2023-09-07T05:28:40;101303.03;;;19.61;68.84
17362;BME280;8798;51.938;4.348;2023-09-07T05:31:08;101302.38;;;19.59;68.71
17362;BME280;8798;51.938;4.348;2023-09-07T05:33:36;101311.38;;;19.60;68.85
17362;BME280;8798;51.938;4.348;2023-09-07T05:36:04;101319.75;;;19.58;68.60
17362;BME280;8798;51.938;4.348;2023-09-07T05:38:33;101318.09;;;19.57;68.85
17362;BME280;8798;51.938;4.348;2023-09-07T05:41:01;101328.97;;;19.57;68.79
17362;BME280;8798;51.938;4.348;2023-09-07T05:43:30;101342.44;;;19.59;68.71
17362;BME280;8798;51.938;4.348;2023-09-07T05:45:59;101363.00;;;19.61;68.90
17362;BME280;8798;51.938;4.348;2023-09-07T05:48:28;101378.94;;;19.64;68.87
17362;BME280;8798;51.938;4.348;2023-09-07T05:50:56;101394.25;;;19.65;68.65
17362;BME280;8798;51.938;4.348;2023-09-07T05:53:24;101408.56;;;19.67;68.88
17362;BME280;8798;51.938;4.348;2023-09-07T05:55:52;101419.47;;;19.67;68.83
17362;BME280;8798;51.938;4.348;2023-09-07T05:58:20;101419.47;;;19.67;69.02
17362;BME280;8798;51.938;4.348;2023-09-07T06:00:50;101443.81;;;19.69;69.36
17362;BME280;8798;51.938;4.348;2023-09-07T06:03:18;101460.59;;;19.72;68.96
17362;BME280;8798;51.938;4.348;2023-09-07T06:05:46;101463.34;;;19.72;69.28
17362;BME280;8798;51.938;4.348;2023-09-07T06:08:14;101477.81;;;19.73;69.14
17362;BME280;8798;51.938;4.348;2023-09-07T06:10:42;101489.19;;;19.76;68.90
17362;BME280;8798;51.938;4.348;2023-09-07T06:13:10;101516.03;;;19.80;69.24
17362;BME280;8798;51.938;4.348;2023-09-07T06:15:38;101526.78;;;19.81;69.36
17362;BME280;8798;51.938;4.348;2023-09-07T06:18:07;101540.84;;;19.85;69.23
17362;BME280;8798;51.938;4.348;2023-09-07T06:20:35;101560.59;;;19.87;69.15
17362;BME280;8798;51.938;4.348;2023-09-07T06:23:03;101572.97;;;19.89;69.27
17362;BME280;8798;51.938;4.348;2023-09-07T06:25:31;101599.69;;;19.94;69.51
17362;BME280;8798;51.938;4.348;2023-09-07T06:28:00;101611.25;;;19.96;69.34
17362;BME280;8798;51.938;4.348;2023-09-07T06:30:28;101640.44;;;20.02;69.50
17362;BME280;8798;51.938;4.348;2023-09-07T06:32:55;101653.69;;;20.05;69.61
17362;BME280;8798;51.938;4.348;2023-09-07T06:35:25;101675.16;;;20.08;69.47
17362;BME280;8798;51.938;4.348;2023-09-07T06:37:53;101693.69;;;20.13;69.38
17362;BME280;8798;51.938;4.348;2023-09-07T06:40:22;101711.53;;;20.15;69.58
17362;BME280;8798;51.938;4.348;2023-09-07T06:42:52;101732.75;;;20.20;69.51
17362;BME280;8798;51.938;4.348;2023-09-07T06:45:20;101750.44;;;20.24;69.63
17362;BME280;8798;51.938;4.348;2023-09-07T06:47:50;101771.69;;;20.29;69.56
17362;BME280;8798;51.938;4.348;2023-09-07T06:50:19;101799.25;;;20.34;69.56
17362;BME280;8798;51.938;4.348;2023-09-07T06:52:49;101811.50;;;20.38;69.71
17362;BME280;8798;51.938;4.348;2023-09-07T06:55:17;101838.22;;;20.43;69.55
17362;BME280;8798;51.938;4.348;2023-09-07T06:57:46;101859.44;;;20.47;69.72
17362;BME280;8798;51.938;4.348;2023-09-07T07:00:15;101875.25;;;20.52;69.59
17362;BME280;8798;51.938;4.348;2023-09-07T07:02:42;101882.22;;;20.54;69.73
17362;BME280;8798;51.938;4.348;2023-09-07T07:05:10;101902.69;;;20.58;69.76
17362;BME280;8798;51.938;4.348;2023-09-07T07:07:38;101928.38;;;20.64;69.67
17362;BME280;8798;51.938;4.348;2023-09-07T07:10:08;101949.66;;;20.69;69.84
17362;BME280;8798;51.938;4.348;2023-09-07T07:12:39;101967.13;;;20.74;69.81
17362;BME280;8798;51.938;4.348;2023-09-07T07:15:08;101984.00;;;20.78;70.02
17362;BME280;8798;51.938;4.348;2023-09-07T07:17:36;102005.97;;;20.85;69.82
17362;BME280;8798;51.938;4.348;2023-09-07T07:20:05;102030.59;;;20.91;69.85
17362;BME280;8798;51.938;4.348;2023-09-07T07:22:33;102053.59;;;20.97;70.13
17362;BME280;8798;51.938;4.348;2023-09-07T07:25:02;102067.72;;;21.00;70.10
17362;BME280;8798;51.938;4.348;2023-09-07T07:27:33;102083.53;;;21.05;69.92
17362;BME280;8798;51.938;4.348;2023-09-07T07:30:01;102107.38;;;21.11;70.05
17362;BME280;8798;51.938;4.348;2023-09-07T07:32:30;102130.38;;;21.17;70.19
17362;BME280;8798;51.938;4.348;2023-09-07T07:34:58;102151.47;;;21.23;70.01
17362;BME280;8798;51.938;4.348;2023-09-07T07:37:26;102165.41;;;21.28;70.11
17362;BME280;8798;51.938;4.348;2023-09-07T07:39:54;102208.88;;;21.38;69.92
17362;BME280;8798;51.938;4.348;2023-09-07T07:42:22;102228.97;;;21.45;69.98
17362;BME280;8798;51.938;4.348;2023-09-07T07:44:51;102258.94;;;21.53;70.31
17362;BME280;8798;51.938;4.348;2023-09-07T07:47:19;102281.97;;;21.59;69.98
17362;BME280;8798;51.938;4.348;2023-09-07T07:49:47;102293.19;;;21.64;70.34
17362;BME280;8798;51.938;4.348;2023-09-07T07:52:15;102313.09;;;21.73;69.73
17362;BME280;8798;51.938;4.348;2023-09-07T07:54:43;102356.56;;;21.82;69.65
17362;BME280;8798;51.938;4.348;2023-09-07T07:57:11;102379.41;;;21.89;70.04
17362;BME280;8798;51.938;4.348;2023-09-07T07:59:39;102391.47;;;21.95;69.80
17362;BME280;8798;51.938;4.348;2023-09-07T08:02:09;102421.50;;;22.03;69.25
17362;BME280;8798;51.938;4.348;2023-09-07T08:04:36;102441.59;;;22.10;69.41
17362;BME280;8798;51.938;4.348;2023-09-07T08:07:04;102448.88;;;22.18;69.97
17362;BME280;8798;51.938;4.348;2023-09-07T08:09:35;102475.34;;;22.26;69.32
17362;BME280;8798;51.938;4.348;2023-09-07T08:12:05;102505.38;;;22.34;69.23
17362;BME280;8798;51.938;4.348;2023-09-07T08:14:33;102511.97;;;22.40;69.35
17362;BME280;8798;51.938;4.348;2023-09-07T08:17:01;102518.59;;;22.45;68.71
17362;BME280;8798;51.938;4.348;2023-09-07T08:19:31;102546.91;;;22.52;69.01
17362;BME280;8798;51.938;4.348;2023-09-07T08:21:59;102575.75;;;22.63;68.97
17362;BME280;8798;51.938;4.348;2023-09-07T08:24:30;102611.75;;;22.75;69.01
17362;BME280;8798;51.938;4.348;2023-09-07T08:26:58;102635.25;;;22.84;68.88
17362;BME280;8798;51.938;4.348;2023-09-07T08:29:27;102648.88;;;22.92;68.74
17362;BME280;8798;51.938;4.348;2023-09-07T08:31:58;102683.41;;;23.02;68.10
17362;BME280;8798;51.938;4.348;2023-09-07T08:34:31;102708.47;;;23.13;68.46
17362;BME280;8798;51.938;4.348;2023-09-07T08:37:01;102741.09;;;23.23;67.97
17362;BME280;8798;51.938;4.348;2023-09-07T08:39:32;102783.28;;;23.37;68.05
17362;BME280;8798;51.938;4.348;2023-09-07T08:42:01;102841.38;;;23.55;67.61
17362;BME280;8798;51.938;4.348;2023-09-07T08:44:29;102980.84;;;23.90;67.61
17362;BME280;8798;51.938;4.348;2023-09-07T08:46:58;103288.75;;;24.64;67.40
17362;BME280;8798;51.938;4.348;2023-09-07T08:49:27;103824.78;;;25.85;66.95
17362;BME280;8798;51.938;4.348;2023-09-07T08:51:58;104439.94;;;27.28;66.10
17362;BME280;8798;51.938;4.348;2023-09-07T08:54:27;105095.19;;;28.77;66.15
17362;BME280;8798;51.938;4.348;2023-09-07T08:56:56;105705.44;;;30.18;65.69
17362;BME280;8798;51.938;4.348;2023-09-07T08:59:24;106202.06;;;31.38;64.79
17362;BME280;8798;51.938;4.348;2023-09-07T09:01:56;106663.56;;;32.52;64.06
17362;BME280;8798;51.938;4.348;2023-09-07T09:04:25;107018.25;;;33.47;62.89
17362;BME280;8798;51.938;4.348;2023-09-07T09:06:55;107358.81;;;34.41;62.66
17362;BME280;8798;51.938;4.348;2023-09-07T09:09:24;107670.56;;;35.31;61.34
17362;BME280;8798;51.938;4.348;2023-09-07T09:11:53;107943.22;;;36.16;60.50
17362;BME280;8798;51.938;4.348;2023-09-07T09:14:21;108212.84;;;36.97;59.16
17362;BME280;8798;51.938;4.348;2023-09-07T09:16:49;108439.13;;;37.76;57.74
17362;BME280;8798;51.938;4.348;2023-09-07T09:19:18;108589.16;;;38.42;56.93
17362;BME280;8798;51.938;4.348;2023-09-07T09:21:46;108781.84;;;39.14;55.80
17362;BME280;8798;51.938;4.348;2023-09-07T09:24:16;108905.28;;;39.75;54.82
17362;BME280;8798;51.938;4.348;2023-09-07T09:26:46;108984.31;;;40.31;53.39
17362;BME280;8798;51.938;4.348;2023-09-07T09:29:14;109082.63;;;40.91;52.46
17362;BME280;8798;51.938;4.348;2023-09-07T09:31:43;109151.34;;;41.45;50.84
17362;BME280;8798;51.938;4.348;2023-09-07T09:34:11;109196.00;;;41.95;50.04
17362;BME280;8798;51.938;4.348;2023-09-07T09:36:42;109169.16;;;42.33;48.70
17362;BME280;8798;51.938;4.348;2023-09-07T09:39:21;109174.38;;;42.81;47.80
17362;BME280;8798;51.938;4.348;2023-09-07T09:41:52;109126.78;;;43.17;46.83
17362;BME280;8798;51.938;4.348;2023-09-07T09:44:23;109074.16;;;43.47;45.69
17362;BME280;8798;51.938;4.348;2023-09-07T09:46:52;109068.22;;;43.90;44.79
17362;BME280;8798;51.938;4.348;2023-09-07T09:49:22;109046.59;;;44.28;43.32
17362;BME280;8798;51.938;4.348;2023-09-07T09:51:50;109031.44;;;44.67;42.78
17362;BME280;8798;51.938;4.348;2023-09-07T09:54:18;108959.63;;;44.96;41.76
17362;BME280;8798;51.938;4.348;2023-09-07T09:56:46;108870.31;;;45.20;41.16
17362;BME280;8798;51.938;4.348;2023-09-07T09:59:15;108719.75;;;45.34;40.13
17362;BME280;8798;51.938;4.348;2023-09-07T10:01:46;108640.56;;;45.59;39.32
17362;BME280;8798;51.938;4.348;2023-09-07T10:04:18;108547.03;;;45.84;38.77
17362;BME280;8798;51.938;4.348;2023-09-07T10:06:53;108491.78;;;46.13;37.74
17362;BME280;8798;51.938;4.348;2023-09-07T10:09:21;108268.13;;;46.10;36.88
17362;BME280;8798;51.938;4.348;2023-09-07T10:11:53;108153.31;;;46.30;36.03
17362;BME280;8798;51.938;4.348;2023-09-07T10:14:23;108048.53;;;46.45;35.93
17362;BME280;8798;51.938;4.348;2023-09-07T10:16:52;107869.06;;;46.45;34.95
17362;BME280;8798;51.938;4.348;2023-09-07T10:19:23;107754.75;;;46.60;34.42
17362;BME280;8798;51.938;4.348;2023-09-07T10:21:53;107673.03;;;46.79;33.99
17362;BME280;8798;51.938;4.348;2023-09-07T10:24:25;107620.69;;;47.04;33.28
17362;BME280;8798;51.938;4.348;2023-09-07T10:26:58;107562.91;;;47.27;32.51
17362;BME280;8798;51.938;4.348;2023-09-07T10:29:28;107495.00;;;47.47;32.73
17362;BME280;8798;51.938;4.348;2023-09-07T10:31:56;107494.38;;;47.80;32.13
17362;BME280;8798;51.938;4.348;2023-09-07T10:34:34;107500.91;;;48.16;31.66
17362;BME280;8798;51.938;4.348;2023-09-07T10:37:03;107427.06;;;48.37;31.11
17362;BME280;8798;51.938;4.348;2023-09-07T10:39:31;107368.34;;;48.58;30.25
17362;BME280;8798;51.938;4.348;2023-09-07T10:42:00;107319.56;;;48.81;30.17
17362;BME280;8798;51.938;4.348;2023-09-07T10:44:29;107253.25;;;49.01;29.71
17362;BME280;8798;51.938;4.348;2023-09-07T10:46:57;107237.06;;;49.29;29.07
17362;BME280;8798;51.938;4.348;2023-09-07T10:49:26;107225.72;;;49.61;28.19
17362;BME280;8798;51.938;4.348;2023-09-07T10:51:54;107121.94;;;49.71;28.14
17362;BME280;8798;51.938;4.348;2023-09-07T10:54:23;107067.94;;;49.90;28.23
17362;BME280;8798;51.938;4.348;2023-09-07T10:56:53;107039.19;;;50.17;27.42
17362;BME280;8798;51.938;4.348;2023-09-07T10:59:27;106993.78;;;50.41;27.26
17362;BME280;8798;51.938;4.348;2023-09-07T11:02:03;106980.13;;;50.74;26.44
17362;BME280;8798;51.938;4.348;2023-09-07T11:04:31;106899.28;;;50.87;25.96
17362;BME280;8798;51.938;4.348;2023-09-07T11:06:59;106833.88;;;51.05;25.88
17362;BME280;8798;51.938;4.348;2023-09-07T11:09:27;106824.59;;;51.33;25.76
17362;BME280;8798;51.938;4.348;2023-09-07T11:12:03;106782.94;;;51.56;25.38
17362;BME280;8798;51.938;4.348;2023-09-07T11:14:31;106627.34;;;51.54;25.08
17362;BME280;8798;51.938;4.348;2023-09-07T11:17:02;106523.34;;;51.63;24.66
17362;BME280;8798;51.938;4.348;2023-09-07T11:19:32;106487.84;;;51.82;24.56
17362;BME280;8798;51.938;4.348;2023-09-07T11:22:00;106276.41;;;51.68;24.04
17362;BME280;8798;51.938;4.348;2023-09-07T11:24:31;106153.22;;;51.71;23.23
17362;BME280;8798;51.938;4.348;2023-09-07T11:27:00;106136.50;;;51.92;23.63
17362;BME280;8798;51.938;4.348;2023-09-07T11:29:31;106108.28;;;52.13;22.85
17362;BME280;8798;51.938;4.348;2023-09-07T11:32:07;106042.53;;;52.25;23.17
17362;BME280;8798;51.938;4.348;2023-09-07T11:34:46;105874.63;;;52.18;22.03
17362;BME280;8798;51.938;4.348;2023-09-07T11:37:15;105672.00;;;51.98;22.96
17362;BME280;8798;51.938;4.348;2023-09-07T11:39:43;105529.72;;;51.92;21.92
17362;BME280;8798;51.938;4.348;2023-09-07T11:42:11;105474.03;;;52.01;21.78
17362;BME280;8798;51.938;4.348;2023-09-07T11:44:39;105335.84;;;51.94;21.18
17362;BME280;8798;51.938;4.348;2023-09-07T11:47:09;105209.47;;;51.86;21.06
17362;BME280;8798;51.938;4.348;2023-09-07T11:49:37;105249.06;;;52.15;21.56
17362;BME280;8798;51.938;4.348;2023-09-07T11:52:05;105330.94;;;52.52;20.70
17362;BME280;8798;51.938;4.348;2023-09-07T11:54:34;105328.28;;;52.73;20.71
17362;BME280;8798;51.938;4.348;2023-09-07T11:57:02;105262.50;;;52.80;21.34
17362;BME280;8798;51.938;4.348;2023-09-07T11:59:30;105187.88;;;52.84;21.14
17362;BME280;8798;51.938;4.348;2023-09-07T12:02:19;104991.09;;;52.64;20.07
17362;BME280;8798;51.938;4.348;2023-09-07T12:04:48;104919.38;;;52.67;20.15
17362;BME280;8798;51.938;4.348;2023-09-07T12:07:16;104832.31;;;52.67;20.80
17362;BME280;8798;51.938;4.348;2023-09-07T12:09:44;104708.66;;;52.55;19.79
17362;BME280;8798;51.938;4.348;2023-09-07T12:12:13;104610.84;;;52.51;20.10
17362;BME280;8798;51.938;4.348;2023-09-07T12:14:40;104602.75;;;52.65;20.26
17362;BME280;8798;51.938;4.348;2023-09-07T12:17:08;104570.22;;;52.74;19.95
17362;BME280;8798;51.938;4.348;2023-09-07T12:19:38;104526.13;;;52.82;19.83
17362;BME280;8798;51.938;4.348;2023-09-07T12:22:08;104425.78;;;52.77;19.58
17362;BME280;8798;51.938;4.348;2023-09-07T12:24:36;104502.00;;;53.07;19.26
17362;BME280;8798;51.938;4.348;2023-09-07T12:27:04;104441.34;;;53.13;19.38
17362;BME280;8798;51.938;4.348;2023-09-07T12:29:32;104318.03;;;52.99;18.75
17362;BME280;8798;51.938;4.348;2023-09-07T12:32:00;104190.63;;;52.82;19.40
17362;BME280;8798;51.938;4.348;2023-09-07T12:34:29;104127.41;;;52.82;19.27
17362;BME280;8798;51.938;4.348;2023-09-07T12:36:59;104102.66;;;52.94;18.22
17362;BME280;8798;51.938;4.348;2023-09-07T12:39:28;104055.00;;;52.93;18.22
17362;BME280;8798;51.938;4.348;2023-09-07T12:41:56;103854.56;;;52.58;19.03
17362;BME280;8798;51.938;4.348;2023-09-07T12:44:24;103710.34;;;52.36;18.57
17362;BME280;8798;51.938;4.348;2023-09-07T12:46:52;103579.88;;;52.18;18.06
17362;BME280;8798;51.938;4.348;2023-09-07T12:49:20;103425.88;;;51.90;18.56
17362;BME280;8798;51.938;4.348;2023-09-07T12:51:48;103343.63;;;51.78;18.97
17362;BME280;8798;51.938;4.348;2023-09-07T12:54:17;103088.94;;;51.26;18.23
17362;BME280;8798;51.938;4.348;2023-09-07T12:56:45;102639.38;;;50.25;18.43
17362;BME280;8798;51.938;4.348;2023-09-07T12:59:13;101919.34;;;48.49;18.44
17362;BME280;8798;51.938;4.348;2023-09-07T13:01:41;101262.72;;;46.85;18.80
17362;BME280;8798;51.938;4.348;2023-09-07T13:04:09;100782.66;;;45.57;18.86
17362;BME280;8798;51.938;4.348;2023-09-07T13:06:38;100403.56;;;44.49;19.45
17362;BME280;8798;51.938;4.348;2023-09-07T13:09:06;100110.81;;;43.61;19.16